Time;durP1;ratioP1;P1;durP2;ratioP2;P2;SDS_P1;SDS_P2;PMS_P1;PMS_P2;Temp;Humidity;BMP_temperature;BMP_pressure;BME280_temperature;BME280_humidity;BME280_pressure;Samples;Min_cycle;Max_cycle;Signal;HPM_P1;HPM_P2
2023/03/15 03:02:20;;;;;;;10.33;9.57;;;1.90;99.90;;;;;;5190589;23;20528;-76
2023/03/15 03:04:48;;;;;;;10.20;9.40;;;1.80;99.90;;;;;;4971721;28;20285;-78
2023/03/15 03:07:15;;;;;;;10.67;9.90;;;1.80;99.90;;;;;;4974374;28;20256;-78
2023/03/15 03:09:47;;;;;;;10.63;9.83;;;1.80;99.90;;;;;;4970676;28;20452;-78
2023/03/15 03:12:14;;;;;;;11.80;10.93;;;1.80;99.90;;;;;;4952789;28;20532;-78
2023/03/15 03:14:43;;;;;;;10.77;9.73;;;1.90;99.90;;;;;;4954088;29;20529;-78
2023/03/15 03:17:13;;;;;;;11.07;10.17;;;1.90;99.90;;;;;;4952218;29;20464;-78
2023/03/15 03:19:41;;;;;;;10.90;10.00;;;1.80;99.90;;;;;;4952049;29;20446;-78
2023/03/15 03:22:12;;;;;;;10.40;9.50;;;1.80;99.90;;;;;;4950954;28;20956;-78
2023/03/15 03:24:44;;;;;;;10.43;9.63;;;1.70;99.90;;;;;;4951675;29;20447;-77
2023/03/15 03:27:13;;;;;;;10.30;9.60;;;1.70;99.90;;;;;;4954716;29;20822;-78
2023/03/15 03:29:41;;;;;;;10.70;9.70;;;1.70;99.90;;;;;;4949320;29;20465;-78
2023/03/15 03:32:10;;;;;;;11.00;10.13;;;1.70;99.90;;;;;;4953868;28;20492;-78
2023/03/15 03:34:38;;;;;;;10.10;9.50;;;1.60;99.90;;;;;;4953750;28;20482;-77
2023/03/15 03:37:06;;;;;;;10.77;9.67;;;1.60;99.90;;;;;;4951129;29;20751;-77
2023/03/15 03:39:59;;;;;;;10.80;10.00;;;1.60;99.90;;;;;;4938461;28;20494;-76
2023/03/15 03:42:26;;;;;;;11.20;10.30;;;1.60;99.90;;;;;;4946436;28;20227;-76
2023/03/15 03:44:53;;;;;;;10.83;9.93;;;1.60;99.90;;;;;;4950203;29;20558;-76
2023/03/15 03:47:21;;;;;;;11.33;10.40;;;1.50;99.90;;;;;;4949032;29;20505;-76
2023/03/15 03:49:48;;;;;;;11.73;10.57;;;1.50;99.90;;;;;;4950286;29;20454;-77
2023/03/15 03:52:16;;;;;;;10.67;9.97;;;1.50;99.90;;;;;;4951295;28;20488;-76
2023/03/15 03:54:46;;;;;;;10.60;9.80;;;1.50;99.90;;;;;;4930170;29;20451;-80
2023/03/15 03:57:13;;;;;;;10.80;10.10;;;1.50;99.90;;;;;;4945200;29;20470;-82
2023/03/15 03:59:40;;;;;;;10.97;10.10;;;1.50;99.90;;;;;;4933582;29;20966;-81
2023/03/15 04:02:09;;;;;;;10.83;9.93;;;1.50;99.90;;;;;;4942870;29;20485;-81
2023/03/15 04:04:39;;;;;;;11.17;10.17;;;1.40;99.90;;;;;;4939897;29;20446;-81
2023/03/15 04:07:08;;;;;;;9.87;9.27;;;1.40;99.90;;;;;;4939571;29;20451;-82
2023/03/15 04:09:40;;;;;;;10.80;10.00;;;1.40;99.90;;;;;;4933621;29;20205;-81
2023/03/15 04:12:08;;;;;;;10.70;9.87;;;1.40;99.90;;;;;;4933489;29;20875;-81
2023/03/15 04:14:37;;;;;;;11.07;10.00;;;1.40;99.90;;;;;;4933809;29;20450;-81
2023/03/15 04:17:07;;;;;;;10.77;9.97;;;1.40;99.90;;;;;;4933415;29;20470;-81
2023/03/15 04:19:34;;;;;;;11.00;10.10;;;1.30;99.90;;;;;;4938170;29;20453;-81
2023/03/15 04:22:05;;;;;;;10.83;10.07;;;1.30;99.90;;;;;;4949013;28;20477;-80
2023/03/15 04:24:42;;;;;;;11.10;10.30;;;1.30;99.90;;;;;;4946985;29;20496;-80
2023/03/15 04:27:16;;;;;;;11.17;10.07;;;1.30;99.90;;;;;;4938446;29;20482;-81
2023/03/15 04:29:58;;;;;;;11.30;10.40;;;1.30;99.90;;;;;;4947286;29;21027;-81
2023/03/15 04:33:04;;;;;;;11.67;10.87;;;1.30;99.90;;;;;;4941401;28;20468;-80
2023/03/15 04:35:44;;;;;;;11.37;10.57;;;1.20;99.90;;;;;;4947029;29;20450;-80
2023/03/15 04:38:40;;;;;;;10.90;10.30;;;1.20;99.90;;;;;;4940159;29;20878;-77
2023/03/15 04:41:20;;;;;;;11.90;11.10;;;1.20;99.90;;;;;;4945954;29;20818;-76
2023/03/15 04:44:00;;;;;;;12.07;11.00;;;1.10;99.90;;;;;;4948327;29;20458;-76
2023/03/15 04:46:53;;;;;;;11.43;10.50;;;1.10;99.90;;;;;;4945209;29;20453;-75
2023/03/15 04:49:38;;;;;;;12.13;11.13;;;1.10;99.90;;;;;;4946203;29;20467;-76
2023/03/15 04:52:28;;;;;;;11.40;10.70;;;1.00;99.90;;;;;;4940935;29;20577;-76
2023/03/15 04:55:20;;;;;;;12.37;11.30;;;1.00;99.90;;;;;;4952035;29;20460;-76
2023/03/15 04:57:59;;;;;;;12.10;11.30;;;1.00;99.90;;;;;;4952626;29;21067;-76
2023/03/15 05:00:45;;;;;;;12.73;11.93;;;1.00;99.90;;;;;;4943453;28;20479;-76
2023/03/15 05:03:50;;;;;;;12.70;11.80;;;1.00;99.90;;;;;;4950202;28;20484;-75
2023/03/15 05:06:35;;;;;;;12.87;11.97;;;1.00;99.90;;;;;;4954575;29;20959;-76
2023/03/15 05:09:17;;;;;;;12.60;11.67;;;1.00;99.90;;;;;;4951938;29;20980;-76
2023/03/15 05:12:05;;;;;;;12.60;11.70;;;1.00;99.90;;;;;;4939256;29;20458;-76
2023/03/15 05:14:45;;;;;;;13.07;12.07;;;1.00;99.90;;;;;;4947525;29;20543;-76
2023/03/15 05:17:32;;;;;;;12.47;11.37;;;1.00;99.90;;;;;;4954074;29;20538;-76
2023/03/15 05:20:19;;;;;;;12.17;11.17;;;1.00;99.90;;;;;;4952626;29;21110;-75
2023/03/15 05:23:07;;;;;;;11.77;10.97;;;1.00;99.90;;;;;;4953428;28;20438;-76
2023/03/15 05:25:43;;;;;;;13.50;11.47;;;1.00;99.90;;;;;;4941205;29;20731;-76
2023/03/15 05:28:31;;;;;;;12.33;11.30;;;0.90;99.90;;;;;;4945403;29;20477;-75
2023/03/15 05:31:14;;;;;;;12.93;11.93;;;0.90;99.90;;;;;;4950950;28;20553;-77
2023/03/15 05:34:03;;;;;;;13.50;12.10;;;0.90;99.90;;;;;;4952111;29;20456;-76
2023/03/15 05:36:45;;;;;;;12.97;11.90;;;0.90;99.90;;;;;;4941889;29;20449;-76
2023/03/15 05:39:27;;;;;;;12.73;11.63;;;0.80;99.90;;;;;;4957323;29;20445;-76
2023/03/15 05:42:24;;;;;;;12.83;11.83;;;0.80;99.90;;;;;;4953612;28;20492;-76
2023/03/15 05:45:12;;;;;;;12.97;12.07;;;0.70;99.90;;;;;;4952466;29;20447;-76
2023/03/15 05:47:53;;;;;;;13.63;12.50;;;0.70;99.90;;;;;;4934732;29;20951;-76
2023/03/15 05:50:27;;;;;;;12.83;11.93;;;0.70;99.90;;;;;;4939796;29;20545;-76
2023/03/15 05:53:20;;;;;;;12.60;11.80;;;0.70;99.90;;;;;;4937770;29;20449;-76
2023/03/15 05:56:10;;;;;;;13.43;12.43;;;0.70;99.90;;;;;;4939306;29;20501;-76
2023/03/15 05:59:01;;;;;;;14.17;13.00;;;0.80;99.90;;;;;;4938976;29;20540;-76
2023/03/15 06:01:47;;;;;;;13.83;12.70;;;0.80;99.90;;;;;;4934507;29;20987;-77
2023/03/15 06:04:36;;;;;;;13.20;12.27;;;0.80;99.90;;;;;;4954311;28;20496;-76
2023/03/15 06:07:03;;;;;;;13.80;12.80;;;0.90;99.90;;;;;;4944651;29;20468;-76
2023/03/15 06:09:32;;;;;;;14.23;13.27;;;0.90;99.90;;;;;;4950092;29;20456;-77
2023/03/15 06:11:59;;;;;;;15.47;14.07;;;1.00;99.90;;;;;;4948976;29;20477;-76
2023/03/15 06:14:26;;;;;;;14.90;13.40;;;1.10;99.90;;;;;;4953086;29;20504;-77
2023/03/15 06:16:57;;;;;;;14.73;13.30;;;1.10;99.90;;;;;;4952119;29;20468;-76
2023/03/15 06:19:25;;;;;;;14.67;13.40;;;1.20;99.90;;;;;;4951002;29;20450;-76
2023/03/15 06:21:55;;;;;;;15.20;13.90;;;1.40;99.90;;;;;;4952471;28;20486;-77
2023/03/15 06:24:31;;;;;;;14.83;13.43;;;1.70;99.90;;;;;;4944797;29;20450;-77
2023/03/15 06:26:58;;;;;;;14.87;13.53;;;1.90;99.90;;;;;;4955013;29;20489;-76
2023/03/15 06:29:25;;;;;;;15.53;14.23;;;2.20;99.90;;;;;;4947160;29;20227;-76
2023/03/15 06:31:54;;;;;;;15.47;13.97;;;2.30;99.90;;;;;;4952112;28;20222;-76
2023/03/15 06:34:23;;;;;;;15.10;13.90;;;2.50;99.90;;;;;;4951239;29;20206;-76
2023/03/15 06:36:51;;;;;;;14.37;13.07;;;2.70;99.90;;;;;;4949755;29;20546;-76
2023/03/15 06:39:20;;;;;;;14.47;13.27;;;2.90;99.90;;;;;;4953172;29;20509;-76
2023/03/15 06:41:46;;;;;;;13.87;12.90;;;3.00;99.90;;;;;;4951645;28;20697;-76
2023/03/15 06:44:19;;;;;;;14.57;13.27;;;3.20;99.90;;;;;;4950413;29;20234;-77
2023/03/15 06:46:47;;;;;;;14.53;13.17;;;3.30;99.90;;;;;;4954706;29;20203;-77
2023/03/15 06:49:14;;;;;;;13.67;12.57;;;3.50;99.90;;;;;;4952217;29;20358;-76
2023/03/15 06:51:43;;;;;;;14.37;12.77;;;3.60;99.90;;;;;;4949385;28;20619;-76
2023/03/15 06:54:11;;;;;;;13.40;12.30;;;3.80;99.90;;;;;;4948129;29;20211;-77
2023/03/15 06:56:40;;;;;;;13.77;12.77;;;4.00;99.90;;;;;;4946678;29;20306;-77
2023/03/15 06:59:07;;;;;;;13.17;12.13;;;4.20;99.90;;;;;;4948472;28;20195;-82
2023/03/15 07:01:34;;;;;;;13.70;12.37;;;4.30;99.90;;;;;;4949502;28;20227;-81
2023/03/15 07:04:00;;;;;;;12.83;11.77;;;4.40;99.90;;;;;;4945483;29;20207;-77
2023/03/15 07:06:28;;;;;;;13.00;11.87;;;4.60;99.90;;;;;;4951886;29;20194;-77
2023/03/15 07:08:55;;;;;;;12.80;11.70;;;4.70;99.90;;;;;;4947203;29;20266;-76
2023/03/15 07:11:21;;;;;;;13.17;12.27;;;4.90;99.90;;;;;;4946317;28;20222;-79
2023/03/15 07:13:50;;;;;;;13.10;11.90;;;5.10;99.90;;;;;;4950907;29;20203;-76
2023/03/15 07:16:16;;;;;;;12.60;11.80;;;5.20;99.90;;;;;;4948955;28;20207;-77
2023/03/15 07:18:43;;;;;;;13.13;11.93;;;5.40;99.90;;;;;;4951119;28;20207;-77
2023/03/15 07:21:10;;;;;;;12.70;11.80;;;5.50;99.90;;;;;;4949661;28;20303;-77
2023/03/15 07:23:37;;;;;;;12.30;11.37;;;5.80;99.90;;;;;;4951292;29;20363;-77
2023/03/15 07:26:04;;;;;;;13.30;12.23;;;6.30;99.90;;;;;;4947993;29;20256;-77
2023/03/15 07:28:31;;;;;;;15.47;12.13;;;6.60;99.90;;;;;;4939026;28;20206;-78
2023/03/15 07:31:00;;;;;;;11.80;10.50;;;6.90;99.90;;;;;;4949464;28;20221;-77
2023/03/15 07:33:29;;;;;;;9.17;4.13;;;7.10;99.90;;;;;;4950493;28;20209;-77
2023/03/15 07:35:56;;;;;;;7.37;3.80;;;7.50;99.90;;;;;;4950213;28;20199;-82
2023/03/15 07:38:24;;;;;;;7.13;3.40;;;7.70;99.90;;;;;;4949013;28;20195;-76
2023/03/15 07:40:51;;;;;;;5.27;3.53;;;8.00;99.90;;;;;;4953487;28;20214;-77
2023/03/15 07:43:19;;;;;;;4.50;3.37;;;8.10;99.90;;;;;;4950882;29;20218;-77
2023/03/15 07:45:49;;;;;;;7.33;3.30;;;8.60;99.90;;;;;;4947528;29;20669;-77
2023/03/15 07:48:17;;;;;;;6.87;3.57;;;8.40;99.90;;;;;;4945120;28;20760;-76
2023/03/15 07:50:45;;;;;;;6.43;3.70;;;8.50;99.90;;;;;;4946884;28;20270;-78
2023/03/15 07:53:12;;;;;;;8.60;4.03;;;9.00;99.90;;;;;;4949521;29;20199;-78
2023/03/15 07:55:39;;;;;;;9.53;3.30;;;9.10;99.90;;;;;;4949994;28;20697;-77
2023/03/15 07:58:05;;;;;;;6.07;3.40;;;9.50;99.90;;;;;;4948045;28;20203;-77
2023/03/15 08:00:32;;;;;;;6.37;3.50;;;9.80;99.90;;;;;;4933778;28;20219;-77
2023/03/15 08:02:59;;;;;;;9.60;8.60;;;9.90;99.90;;;;;;4947030;29;20780;-77
2023/03/15 08:05:27;;;;;;;11.07;8.37;;;10.20;99.90;;;;;;4951683;29;20209;-77
2023/03/15 08:07:55;;;;;;;9.27;8.47;;;10.30;99.90;;;;;;4948221;29;20208;-77
2023/03/15 08:10:22;;;;;;;8.87;7.60;;;10.40;99.90;;;;;;4947194;28;20264;-77
2023/03/15 08:12:48;;;;;;;8.70;7.90;;;10.70;99.90;;;;;;4932800;29;20609;-77
2023/03/15 08:15:16;;;;;;;8.30;7.70;;;10.70;99.90;;;;;;4940649;28;20206;-77
2023/03/15 08:17:43;;;;;;;9.60;8.90;;;11.00;99.90;;;;;;4936673;29;20237;-77
2023/03/15 08:20:13;;;;;;;10.57;8.50;;;11.10;99.90;;;;;;4935076;29;20211;-78
2023/03/15 08:22:43;;;;;;;9.73;7.20;;;10.90;99.90;;;;;;4941000;29;20808;-76
2023/03/15 08:25:11;;;;;;;7.90;7.30;;;11.10;99.90;;;;;;4946941;29;20671;-75
2023/03/15 08:27:37;;;;;;;10.10;9.30;;;11.10;99.90;;;;;;4950229;28;20253;-76
2023/03/15 08:30:05;;;;;;;9.37;8.67;;;11.10;99.90;;;;;;4947673;29;20206;-76
2023/03/15 08:32:32;;;;;;;9.37;8.50;;;11.20;99.90;;;;;;4947662;28;20236;-77
2023/03/15 08:34:59;;;;;;;10.03;9.23;;;11.10;99.90;;;;;;4941223;29;20258;-76
2023/03/15 08:37:26;;;;;;;10.20;9.40;;;11.40;99.90;;;;;;4932522;29;20203;-76
2023/03/15 08:39:59;;;;;;;10.63;9.93;;;11.50;99.90;;;;;;4937258;29;20211;-76
2023/03/15 08:42:26;;;;;;;10.63;9.83;;;11.30;99.90;;;;;;4933308;29;20333;-77
2023/03/15 08:44:53;;;;;;;6.40;5.50;;;11.20;99.90;;;;;;4936839;29;20195;-77
2023/03/15 08:47:20;;;;;;;5.20;4.37;;;11.20;99.90;;;;;;4941470;29;20271;-79
2023/03/15 08:49:47;;;;;;;5.00;4.60;;;11.50;99.90;;;;;;4934649;28;20223;-77
2023/03/15 08:52:14;;;;;;;7.17;6.57;;;11.40;99.90;;;;;;4938823;29;20265;-76
2023/03/15 08:54:41;;;;;;;10.27;9.50;;;11.50;99.90;;;;;;4937577;28;20290;-77
2023/03/15 08:57:11;;;;;;;10.33;9.57;;;11.80;99.90;;;;;;4949348;28;20233;-78
2023/03/15 08:59:38;;;;;;;10.70;9.70;;;11.90;99.90;;;;;;4945622;28;20213;-77
2023/03/15 09:02:05;;;;;;;10.70;9.37;;;12.00;99.90;;;;;;4946222;28;20249;-77
2023/03/15 09:04:33;;;;;;;9.50;8.70;;;12.00;99.90;;;;;;4946795;28;20611;-77
2023/03/15 09:07:00;;;;;;;9.63;8.73;;;12.10;99.90;;;;;;4934563;29;20581;-77
2023/03/15 09:09:27;;;;;;;9.07;8.20;;;12.20;99.90;;;;;;4940946;29;20298;-77
2023/03/15 09:11:55;;;;;;;9.03;8.23;;;12.30;99.90;;;;;;4946126;28;20260;-77
2023/03/15 09:14:23;;;;;;;9.10;8.40;;;12.60;99.90;;;;;;4942288;29;20214;-78
2023/03/15 09:16:49;;;;;;;9.17;8.57;;;12.50;99.90;;;;;;4943569;29;20275;-77
2023/03/15 09:19:16;;;;;;;9.97;9.17;;;12.50;99.90;;;;;;4947766;29;20210;-78
2023/03/15 09:21:44;;;;;;;6.83;6.33;;;12.40;99.90;;;;;;4946884;28;20264;-78
2023/03/15 09:24:11;;;;;;;6.97;6.47;;;12.20;99.90;;;;;;4946963;29;20228;-77
2023/03/15 09:26:37;;;;;;;10.13;9.43;;;11.90;99.90;;;;;;4950205;29;20266;-77
2023/03/15 09:29:04;;;;;;;10.37;9.57;;;11.80;99.90;;;;;;4938412;29;20266;-77
2023/03/15 09:31:33;;;;;;;9.90;9.20;;;11.90;99.90;;;;;;4949273;28;20705;-78
2023/03/15 09:34:00;;;;;;;9.90;9.10;;;12.10;99.90;;;;;;4946763;29;20222;-77
2023/03/15 09:36:26;;;;;;;9.77;9.07;;;12.00;99.90;;;;;;4936178;28;20211;-78
2023/03/15 09:38:53;;;;;;;10.03;9.33;;;12.50;99.90;;;;;;4931647;29;20198;-78
2023/03/15 09:41:38;;;;;;;11.50;10.80;;;12.40;99.90;;;;;;4953137;28;20251;-77
2023/03/15 09:44:23;;;;;;;9.73;8.97;;;12.40;99.90;;;;;;4952305;28;20222;-78
2023/03/15 09:47:04;;;;;;;9.20;8.60;;;12.10;99.90;;;;;;4945553;28;20202;-77
2023/03/15 09:49:39;;;;;;;9.33;8.63;;;11.60;99.90;;;;;;4933085;29;20215;-77
2023/03/15 09:52:20;;;;;;;8.97;8.20;;;11.10;99.90;;;;;;4936402;29;20222;-77
2023/03/15 09:54:52;;;;;;;8.80;8.30;;;11.00;99.90;;;;;;4936112;29;20211;-78
2023/03/15 09:57:23;;;;;;;8.23;7.73;;;10.90;99.90;;;;;;4944487;29;20212;-83
2023/03/15 09:59:54;;;;;;;8.63;7.93;;;10.70;99.90;;;;;;4938431;29;20217;-83
2023/03/15 10:02:25;;;;;;;9.47;8.77;;;10.60;99.90;;;;;;4950725;28;20233;-83
2023/03/15 10:04:55;;;;;;;8.50;7.90;;;10.70;99.90;;;;;;4949537;29;20195;-83
2023/03/15 10:07:22;;;;;;;8.20;7.60;;;10.80;99.90;;;;;;4947002;29;20247;-78
2023/03/15 10:09:49;;;;;;;8.53;7.93;;;10.70;99.90;;;;;;4935727;29;20227;-78
2023/03/15 10:12:23;;;;;;;8.40;7.70;;;10.60;99.90;;;;;;4937547;29;20309;-77
2023/03/15 10:15:21;;;;;;;8.37;7.70;;;10.30;99.90;;;;;;4936453;29;20554;-77
2023/03/15 10:18:03;;;;;;;8.03;7.53;;;10.20;99.90;;;;;;4935987;29;20217;-77
2023/03/15 10:20:34;;;;;;;8.60;7.80;;;10.00;99.90;;;;;;4935521;29;20202;-81
2023/03/15 10:23:11;;;;;;;8.47;7.77;;;9.80;99.90;;;;;;4936165;29;20284;-82
2023/03/15 10:25:39;;;;;;;8.80;8.20;;;9.70;99.90;;;;;;4937257;29;20200;-82
2023/03/15 10:28:11;;;;;;;9.00;8.40;;;9.60;99.90;;;;;;4935754;29;20214;-82
2023/03/15 10:30:44;;;;;;;8.47;7.83;;;9.50;99.90;;;;;;4936693;29;20242;-82
2023/03/15 10:33:18;;;;;;;8.60;8.00;;;9.50;99.90;;;;;;4935738;29;20210;-82
2023/03/15 10:35:44;;;;;;;8.70;8.00;;;9.50;99.90;;;;;;4936145;29;20590;-84
2023/03/15 10:38:15;;;;;;;9.43;8.73;;;9.70;99.90;;;;;;4936468;29;20204;-76
2023/03/15 10:40:44;;;;;;;8.37;7.87;;;9.70;99.90;;;;;;4935875;29;20299;-78
2023/03/15 10:43:19;;;;;;;8.00;7.50;;;9.80;99.90;;;;;;4935458;29;20213;-77
2023/03/15 10:46:00;;;;;;;8.37;7.87;;;9.90;99.90;;;;;;4936783;29;20256;-77
2023/03/15 10:48:30;;;;;;;9.30;8.60;;;10.00;99.90;;;;;;4935210;29;20216;-78
2023/03/15 10:50:57;;;;;;;8.93;8.10;;;10.10;99.90;;;;;;4935588;29;20256;-77
2023/03/15 10:53:25;;;;;;;8.60;7.90;;;10.10;99.90;;;;;;4935436;29;20204;-77
2023/03/15 10:56:00;;;;;;;8.30;7.80;;;10.20;99.90;;;;;;4936633;29;20245;-78
2023/03/15 10:58:30;;;;;;;8.00;7.50;;;10.30;99.90;;;;;;4936575;29;20205;-77
2023/03/15 11:01:01;;;;;;;8.53;7.73;;;10.30;99.90;;;;;;4935551;29;20225;-77
2023/03/15 11:03:30;;;;;;;8.20;7.50;;;10.30;99.90;;;;;;4935715;29;20246;-77
2023/03/15 11:05:58;;;;;;;7.83;7.33;;;10.40;99.90;;;;;;4938810;29;20195;-79
2023/03/15 11:08:36;;;;;;;7.90;7.40;;;10.40;99.90;;;;;;4936741;29;20687;-77
2023/03/15 11:11:03;;;;;;;7.90;7.40;;;10.30;99.90;;;;;;4936608;29;20702;-77
2023/03/15 11:13:32;;;;;;;8.43;7.90;;;10.40;99.90;;;;;;4935293;29;20205;-77
2023/03/15 11:16:03;;;;;;;7.93;7.43;;;10.60;99.90;;;;;;4932380;29;20234;-77
2023/03/15 11:18:35;;;;;;;8.87;8.30;;;10.80;99.90;;;;;;4935046;29;20272;-77
2023/03/15 11:21:05;;;;;;;8.77;8.07;;;11.00;99.90;;;;;;4935557;29;20664;-76
2023/03/15 11:23:36;;;;;;;8.40;7.80;;;11.10;99.90;;;;;;4936250;29;20223;-77
2023/03/15 11:26:03;;;;;;;8.90;8.13;;;11.30;99.90;;;;;;4935531;29;20225;-77
2023/03/15 11:28:32;;;;;;;8.23;7.60;;;11.40;99.90;;;;;;4937438;29;20203;-77
2023/03/15 11:31:00;;;;;;;8.00;7.50;;;11.50;99.90;;;;;;4929918;29;20251;-77
2023/03/15 11:33:37;;;;;;;9.20;8.50;;;11.60;99.90;;;;;;4931392;29;20204;-77
2023/03/15 11:36:08;;;;;;;9.30;8.40;;;11.80;99.90;;;;;;4930742;29;20621;-77
2023/03/15 11:38:40;;;;;;;8.67;8.07;;;11.70;99.90;;;;;;4935592;29;20270;-77
2023/03/15 11:41:15;;;;;;;8.30;7.70;;;11.60;99.90;;;;;;4937151;29;20293;-77
2023/03/15 11:43:51;;;;;;;8.03;7.60;;;11.60;99.90;;;;;;4936817;29;21167;-77
2023/03/15 11:46:26;;;;;;;8.13;7.63;;;11.40;99.90;;;;;;4937129;29;20256;-77
2023/03/15 11:49:01;;;;;;;8.00;7.50;;;11.20;99.90;;;;;;4933933;29;20207;-77
2023/03/15 11:51:32;;;;;;;7.90;7.50;;;11.20;99.90;;;;;;4936993;29;20712;-77
2023/03/15 11:54:07;;;;;;;8.60;8.00;;;11.30;99.90;;;;;;4934728;29;20210;-77
2023/03/15 11:56:50;;;;;;;7.97;7.47;;;11.20;99.90;;;;;;4936763;29;20202;-77
2023/03/15 11:59:24;;;;;;;7.50;6.90;;;11.30;99.90;;;;;;4931374;29;20210;-77
2023/03/15 12:01:57;;;;;;;7.70;7.20;;;11.50;99.90;;;;;;4935734;29;20231;-77
2023/03/15 12:04:44;;;;;;;7.00;6.60;;;11.70;99.90;;;;;;4936388;29;20251;-77
2023/03/15 12:07:30;;;;;;;7.20;6.80;;;11.70;99.90;;;;;;4931896;29;20215;-77
2023/03/15 12:09:57;;;;;;;7.70;7.10;;;11.70;99.90;;;;;;4934459;29;20233;-77
2023/03/15 12:12:45;;;;;;;7.30;6.80;;;11.70;99.90;;;;;;4931520;29;20709;-77
2023/03/15 12:15:46;;;;;;;7.17;6.77;;;11.50;99.90;;;;;;4926484;29;20203;-77
2023/03/15 12:18:30;;;;;;;7.50;7.10;;;11.50;99.90;;;;;;4936649;29;20242;-77
2023/03/15 12:21:12;;;;;;;7.30;6.80;;;11.60;99.90;;;;;;4936285;29;21451;-77
2023/03/15 12:23:47;;;;;;;6.97;6.50;;;11.60;99.90;;;;;;4944081;29;20269;-76
2023/03/15 12:26:25;;;;;;;6.63;6.23;;;11.70;99.90;;;;;;4936330;29;20202;-77
2023/03/15 12:29:03;;;;;;;6.57;6.17;;;11.60;99.90;;;;;;4935184;29;20235;-77
2023/03/15 12:31:54;;;;;;;7.30;6.80;;;11.70;99.90;;;;;;4929975;29;20596;-77
2023/03/15 12:34:29;;;;;;;7.00;6.60;;;11.70;99.90;;;;;;4935450;29;20746;-78
2023/03/15 12:37:02;;;;;;;7.33;6.83;;;11.60;99.90;;;;;;4936221;29;20245;-78
2023/03/15 12:39:43;;;;;;;7.50;6.90;;;11.50;99.90;;;;;;4939974;29;20211;-76
2023/03/15 12:42:47;;;;;;;7.70;7.10;;;11.40;99.90;;;;;;4933661;29;20215;-77
2023/03/15 12:45:38;;;;;;;7.70;7.20;;;11.40;99.90;;;;;;4915690;29;20386;-77
2023/03/15 12:48:21;;;;;;;7.70;7.10;;;11.30;99.90;;;;;;4928203;29;20207;-83
2023/03/15 12:51:04;;;;;;;7.73;7.13;;;11.30;99.90;;;;;;4933282;29;20227;-81
2023/03/15 12:53:49;;;;;;;7.73;7.03;;;11.40;99.90;;;;;;4944813;29;20210;-83
2023/03/15 12:56:41;;;;;;;7.03;6.53;;;11.70;99.90;;;;;;4933140;29;20206;-84
2023/03/15 12:59:28;;;;;;;7.23;6.53;;;11.50;99.90;;;;;;4937771;29;20199;-82
2023/03/15 13:01:57;;;;;;;7.43;6.97;;;11.50;99.90;;;;;;4933053;29;20228;-82
2023/03/15 13:04:26;;;;;;;7.60;7.10;;;11.50;99.90;;;;;;4922590;29;20223;-83
2023/03/15 13:07:02;;;;;;;7.70;7.20;;;11.30;99.90;;;;;;4925847;29;20214;-83
2023/03/15 13:09:52;;;;;;;7.57;7.10;;;11.20;99.90;;;;;;4932977;29;20742;-82
2023/03/15 13:12:26;;;;;;;7.57;7.10;;;11.10;99.90;;;;;;4897150;29;20226;-84
2023/03/15 13:15:00;;;;;;;7.77;7.20;;;11.10;99.90;;;;;;4935804;29;20195;-82
2023/03/15 13:17:40;;;;;;;7.60;7.00;;;11.10;99.90;;;;;;4936034;29;20204;-83
2023/03/15 13:20:22;;;;;;;7.10;6.57;;;11.10;99.90;;;;;;4930409;29;20238;-82
2023/03/15 13:22:55;;;;;;;7.50;7.00;;;10.90;99.90;;;;;;4937046;29;20211;-82
2023/03/15 13:25:30;;;;;;;7.30;6.80;;;10.80;99.90;;;;;;4938103;29;20246;-82
2023/03/15 13:28:00;;;;;;;7.00;6.60;;;10.30;99.90;;;;;;4929676;29;20846;-82
2023/03/15 13:30:33;;;;;;;7.07;6.60;;;10.10;99.90;;;;;;4938256;29;20684;-83
2023/03/15 13:33:19;;;;;;;7.17;6.77;;;10.00;99.90;;;;;;4938239;29;20220;-82
2023/03/15 13:35:48;;;;;;;6.83;6.43;;;9.80;99.90;;;;;;4934874;29;20686;-83
2023/03/15 13:38:25;;;;;;;7.73;7.13;;;9.70;99.90;;;;;;4944537;28;20620;-82
2023/03/15 13:40:54;;;;;;;7.50;7.00;;;9.50;99.90;;;;;;4936384;29;20291;-82
2023/03/15 13:43:24;;;;;;;7.93;7.40;;;9.50;99.90;;;;;;4936891;29;20263;-82
2023/03/15 13:45:51;;;;;;;7.30;6.90;;;9.60;99.90;;;;;;4937481;29;20628;-83
2023/03/15 13:48:18;;;;;;;7.83;7.23;;;9.70;99.90;;;;;;4934168;29;20200;-84
2023/03/15 13:50:49;;;;;;;7.80;7.30;;;9.80;99.90;;;;;;4929277;29;20225;-82
2023/03/15 13:53:19;;;;;;;7.10;6.50;;;10.00;99.90;;;;;;4936665;29;20203;-82
2023/03/15 13:55:51;;;;;;;7.30;6.80;;;10.20;99.90;;;;;;4935024;29;20209;-82
2023/03/15 13:58:22;;;;;;;7.37;6.97;;;10.20;99.90;;;;;;4950866;29;20225;-82
2023/03/15 14:00:55;;;;;;;7.10;6.60;;;10.30;99.90;;;;;;4955097;28;20229;-82
2023/03/15 14:03:22;;;;;;;6.77;6.30;;;10.20;99.90;;;;;;4944248;28;20199;-82
2023/03/15 14:05:52;;;;;;;7.07;6.57;;;10.10;99.90;;;;;;4951408;28;20195;-83
2023/03/15 14:08:23;;;;;;;7.17;6.67;;;9.80;99.90;;;;;;4951722;28;20209;-83
2023/03/15 14:11:05;;;;;;;7.20;6.70;;;9.60;99.90;;;;;;4950723;28;20220;-83
2023/03/15 14:13:34;;;;;;;7.70;7.20;;;9.40;99.90;;;;;;4946878;28;20688;-82
2023/03/15 14:16:04;;;;;;;7.10;6.70;;;9.20;99.90;;;;;;4945454;29;20612;-81
2023/03/15 14:18:34;;;;;;;6.90;6.50;;;9.00;99.90;;;;;;4947400;29;20265;-84
2023/03/15 14:21:05;;;;;;;7.33;6.83;;;8.90;99.90;;;;;;4939935;29;20227;-82
2023/03/15 14:23:35;;;;;;;7.00;6.60;;;8.80;99.90;;;;;;4936329;29;20262;-81
2023/03/15 14:26:09;;;;;;;7.83;7.23;;;8.70;99.90;;;;;;4939098;29;20207;-82
2023/03/15 14:28:38;;;;;;;7.90;7.40;;;8.60;99.90;;;;;;4940175;29;20740;-81
2023/03/15 14:31:05;;;;;;;8.10;7.60;;;8.50;99.90;;;;;;4953120;29;20653;-83
2023/03/15 14:33:34;;;;;;;7.90;7.37;;;8.50;99.90;;;;;;4951450;28;20199;-82
2023/03/15 14:36:02;;;;;;;7.40;7.00;;;8.60;99.90;;;;;;4954629;29;20685;-80
2023/03/15 14:38:34;;;;;;;7.40;6.90;;;8.90;99.90;;;;;;4943436;29;20628;-81
2023/03/15 14:41:26;;;;;;;7.90;7.32;;;9.20;99.90;;;;;;4939856;28;20923;-82
2023/03/15 14:43:55;;;;;;;7.27;6.80;;;9.40;99.90;;;;;;4945211;29;20221;-84
2023/03/15 14:46:21;;;;;;;7.30;6.80;;;9.30;99.90;;;;;;4947840;29;20257;-81
2023/03/15 14:48:49;;;;;;;8.43;7.63;;;9.20;99.90;;;;;;4948778;29;20257;-77
2023/03/15 14:51:18;;;;;;;7.77;7.17;;;9.10;99.90;;;;;;4948076;29;20226;-78
2023/03/15 14:53:46;;;;;;;7.30;6.80;;;9.00;99.90;;;;;;4946638;29;20243;-77
2023/03/15 14:56:14;;;;;;;7.70;7.17;;;9.20;99.90;;;;;;4944047;29;20199;-76
2023/03/15 14:58:41;;;;;;;8.10;7.60;;;9.20;99.90;;;;;;4948734;28;20629;-78
2023/03/15 15:01:11;;;;;;;8.63;7.90;;;9.30;99.90;;;;;;4955145;28;20234;-77
2023/03/15 15:03:42;;;;;;;8.30;7.60;;;9.30;99.90;;;;;;4950594;29;20199;-78
2023/03/15 15:06:12;;;;;;;7.87;7.37;;;9.30;99.90;;;;;;4949839;28;20637;-77
2023/03/15 15:08:42;;;;;;;8.07;7.57;;;9.40;99.90;;;;;;4947369;29;20223;-78
2023/03/15 15:11:09;;;;;;;8.03;7.43;;;9.30;99.90;;;;;;4948270;28;20222;-77
2023/03/15 15:13:38;;;;;;;7.70;7.20;;;9.20;99.90;;;;;;4952534;28;20217;-78
2023/03/15 15:16:05;;;;;;;7.90;7.23;;;9.10;99.90;;;;;;4951354;28;20203;-76
2023/03/15 15:18:35;;;;;;;7.67;7.13;;;9.00;99.90;;;;;;4950902;29;20211;-77
2023/03/15 15:21:07;;;;;;;9.27;7.57;;;8.90;99.90;;;;;;4953808;28;20226;-77
2023/03/15 15:23:38;;;;;;;7.73;7.13;;;8.80;99.90;;;;;;4948833;29;20203;-77
2023/03/15 15:26:06;;;;;;;8.23;7.63;;;8.70;99.90;;;;;;4948512;28;20218;-77
2023/03/15 15:28:35;;;;;;;7.60;7.07;;;8.70;99.90;;;;;;4941685;29;20195;-77
2023/03/15 15:31:02;;;;;;;7.40;7.00;;;8.60;99.90;;;;;;4948958;28;20286;-79
2023/03/15 15:33:30;;;;;;;7.20;6.80;;;8.50;99.90;;;;;;4949127;29;20206;-77
2023/03/15 15:35:58;;;;;;;7.53;7.07;;;8.50;99.90;;;;;;4939976;29;20250;-77
2023/03/15 15:38:31;;;;;;;8.40;7.80;;;8.30;99.90;;;;;;4950563;29;20325;-77
2023/03/15 15:40:57;;;;;;;7.77;7.17;;;8.20;99.90;;;;;;4952732;28;20218;-77
2023/03/15 15:43:24;;;;;;;7.90;7.33;;;8.00;99.90;;;;;;4948909;29;20243;-77
2023/03/15 15:45:51;;;;;;;7.27;6.83;;;7.90;99.90;;;;;;4947480;28;20222;-77
2023/03/15 15:48:18;;;;;;;7.77;7.17;;;7.80;99.90;;;;;;4951811;28;20234;-82
2023/03/15 15:50:44;;;;;;;7.70;7.20;;;7.80;99.90;;;;;;4949978;28;20647;-81
2023/03/15 15:53:17;;;;;;;8.50;7.80;;;7.70;99.90;;;;;;4950678;29;20258;-84
2023/03/15 15:55:45;;;;;;;8.20;7.60;;;7.70;99.90;;;;;;4956032;28;20195;-82
2023/03/15 15:58:14;;;;;;;8.20;7.50;;;7.50;99.90;;;;;;4942040;29;20207;-82
2023/03/15 16:00:41;;;;;;;8.07;7.57;;;7.50;99.90;;;;;;4939733;28;20250;-79
2023/03/15 16:03:13;;;;;;;8.20;7.63;;;7.50;99.90;;;;;;4956113;29;20202;-78
2023/03/15 16:05:40;;;;;;;8.80;8.10;;;7.30;99.90;;;;;;4936992;29;20231;-77
2023/03/15 16:08:10;;;;;;;8.93;8.33;;;7.30;99.90;;;;;;4936472;29;20218;-77
2023/03/15 16:10:38;;;;;;;8.73;8.13;;;7.10;99.90;;;;;;4936809;29;20264;-78
2023/03/15 16:13:05;;;;;;;9.23;8.43;;;7.10;99.90;;;;;;4935179;29;20253;-77
2023/03/15 16:15:32;;;;;;;8.80;8.20;;;7.10;99.90;;;;;;4936152;29;20227;-77